Trstenik Airport

LYTR · Central Serbia, Serbia

História da METAR LYTR · Trstenik Airport

Abaixo você vê METARs dos últimos dias. Selecione um ano para navegar pelos METARs mais antigos, a partir do ano 2007.

21 de maio de 2024

Hora Código Clima Temp. Visibilidade Tecto Vento METAR/SPECI
04:30
V
14 °C 10 km+ - Var Var 2 kt METAR LYKV 210230Z VRB02KT CAVOK 14/14 Q1011 NOSIG
03:30
V
15 °C 10 km+ - Var Var 2 kt METAR LYKV 210130Z VRB02KT CAVOK 15/14 Q1011 NOSIG
03:00
V
15 °C 10 km+ - 350° 350° 2 kt METAR LYKV 210100Z 35002KT CAVOK 15/15 Q1011 NOSIG
02:30
V
15 °C 10 km+ - 310° 310° 3 kt METAR LYKV 210030Z 31003KT CAVOK 15/15 Q1011 NOSIG
02:00
V
15 °C 10 km+ - 320° 320° 3 kt METAR LYKV 210000Z 32003KT CAVOK 15/15 Q1011 NOSIG
01:30
V
16 °C 10 km+ - Var Var 1 kt METAR LYKV 202330Z VRB01KT CAVOK 16/15 Q1012 NOSIG
01:00
V
16 °C 10 km+ - Var Var 2 kt METAR LYKV 202300Z VRB02KT CAVOK 16/15 Q1012 NOSIG
00:30
V
16 °C 10 km+ - Var Var 2 kt METAR LYKV 202230Z VRB02KT CAVOK 16/15 Q1012 NOSIG
00:00
V
16 °C 10 km+ - 240° 240° 3 kt METAR LYKV 202200Z 24003KT 180V290 CAVOK 16/15 Q1012 NOSIG

20 de maio de 2024

Hora Código Clima Temp. Visibilidade Tecto Vento METAR/SPECI
23:30
V
17 °C 10 km+ - Var Var 2 kt METAR LYKV 202130Z VRB02KT CAVOK 17/15 Q1012 NOSIG
23:00
V
18 °C 10 km+ - Var Var 1 kt METAR LYKV 202100Z VRB01KT CAVOK 18/15 Q1012 NOSIG
22:30
V
19 °C 10 km+ - Var Var 1 kt METAR LYKV 202030Z VRB01KT CAVOK 19/15 Q1012 NOSIG
22:00
V
20 °C 10 km+ - Var Var 2 kt METAR LYKV 202000Z VRB02KT CAVOK 20/16 Q1012 NOSIG
21:30
V
20 °C 10 km+ - 130° 130° 3 kt METAR LYKV 201930Z 13003KT 080V170 CAVOK 20/16 Q1012 NOSIG
21:00
V
21 °C 10 km+ - 140° 140° 3 kt METAR LYKV 201900Z 14003KT 110V170 CAVOK 21/16 Q1012 NOSIG
20:30
V
21 °C 10 km+ - 110° 110° 3 kt METAR LYKV 201830Z 11003KT 070V140 CAVOK 21/16 Q1011 NOSIG
20:00
V
22 °C 10 km+ - 110° 110° 4 kt METAR LYKV 201800Z 11004KT 060V160 CAVOK 22/16 Q1011 NOSIG
19:30
V
23 °C 10 km+ - 120° 120° 6 kt METAR LYKV 201730Z 12006KT 080V140 CAVOK 23/17 Q1011 NOSIG
19:00
V
24 °C 10 km+ - 120° 120° 6 kt METAR LYKV 201700Z 12006KT 080V160 CAVOK 24/16 Q1011 NOSIG
18:30
V
24 °C 10 km+ - 120° 120° 9 kt METAR LYKV 201630Z 12009KT 9999 FEW050 24/16 Q1011 NOSIG
18:00
V
25 °C 10 km+ - 140° 140° 8 kt METAR LYKV 201600Z 14008KT 100V160 9999 FEW050 25/16 Q1011 NOSIG
17:30
V
25 °C 10 km+ - 140° 140° 9 kt METAR LYKV 201530Z 14009KT 9999 FEW047 25/15 Q1011 NOSIG
17:00
V
25 °C 10 km+ - 150° 150° 8 kt METAR LYKV 201500Z 15008KT 120V180 9999 FEW047 25/15 Q1011 NOSIG
16:30
V
25 °C 10 km+ - 140° 140° 9 kt METAR LYKV 201430Z 14009KT 9999 FEW047 25/16 Q1011 NOSIG
16:00
V
25 °C 10 km+ - 150° 150° 7 kt METAR LYKV 201400Z 15007KT 120V200 9999 SCT047 25/16 Q1011 NOSIG
15:30
V
25 °C 10 km+ - 150° 150° 6 kt METAR LYKV 201330Z 15006KT 110V190 9999 SCT045 25/16 Q1011 NOSIG
15:00
V
25 °C 10 km+ - 130° 130° 4 kt METAR LYKV 201300Z 13004KT 080V170 9999 SCT045 25/15 Q1012 NOSIG
14:30
V
25 °C 10 km+ - Var Var 2 kt METAR LYKV 201230Z VRB02KT 9999 SCT033 25/15 Q1012 NOSIG
14:00
V
24 °C 10 km+ - Var Var 3 kt METAR LYKV 201200Z VRB03KT 9999 SCT033 24/16 Q1012 NOSIG
13:30
V
24 °C 10 km+ - Var Var 2 kt METAR LYKV 201130Z VRB02KT 9999 SCT030 24/17 Q1013 NOSIG
13:00
V
23 °C 10 km+ - 220° 220° 4 kt METAR LYKV 201100Z 22004KT 150V260 9999 SCT027 23/17 Q1013 NOSIG
12:30
V
23 °C 10 km+ - 140° 140° 6 kt METAR LYKV 201030Z 14006KT 110V210 9999 SCT023 23/17 Q1013 NOSIG
12:00
V
22 °C 10 km+ - 170° 170° 4 kt METAR LYKV 201000Z 17004KT 100V270 9999 SCT020 22/17 Q1013 NOSIG
11:30
V
21 °C 10 km+ - 180° 180° 4 kt METAR LYKV 200930Z 18004KT 120V260 9999 SCT018 21/17 Q1013 NOSIG
11:00
V
21 °C 10 km+ - 170° 170° 6 kt METAR LYKV 200900Z 17006KT 130V210 9999 SCT018 21/17 Q1013 NOSIG
10:30
V
20 °C 10 km+ - 170° 170° 6 kt METAR LYKV 200830Z 17006KT 120V210 9999 SCT016 SCT023 20/17 Q1013 BECMG SCT016
10:00
M
20 °C 10 km+ 1.500 ft 160° 160° 4 kt METAR LYKV 200800Z 16004KT 110V210 9999 BKN015 20/17 Q1013 BECMG SCT016
09:30
I
18 °C 10 km+ 900 ft 170° 170° 3 kt METAR LYKV 200730Z 17003KT 140V210 9999 BKN009 SCT017 18/16 Q1013 BECMG SCT015
09:00
I
18 °C 10 km+ 800 ft 170° 170° 3 kt METAR LYKV 200700Z 17003KT 140V200 9999 BKN008 SCT017 18/16 Q1013 BECMG SCT015
08:30
V
18 °C 10 km+ - Var Var 2 kt METAR LYKV 200630Z VRB02KT 9999 SCT007 SCT015 18/16 Q1013 NOSIG
08:00
V
18 °C 10 km+ - Var Var 2 kt METAR LYKV 200600Z VRB02KT 9999 FEW004 SCT015 18/16 Q1013 NOSIG
07:30
V
17 °C 10 km+ - Var Var 2 kt METAR LYKV 200530Z VRB02KT 9999 FEW004 SCT015 17/16 Q1013 NOSIG
07:00
V
17 °C 10 km+ - 360° 360° 0 kt METAR LYKV 200500Z 00000KT 9999 FEW004 SCT018 17/17 Q1012 TEMPO BKN005
06:30
M
16 °C 7 km - Var Var 2 kt METAR LYKV 200430Z VRB02KT 7000 FEW004 SCT015 16/16 Q1012 TEMPO BKN005
06:00
M
16 °C 6 km - 100° 100° 3 kt METAR LYKV 200400Z 10003KT 070V140 6000 SCT004 SCT015 16/16 Q1012 TEMPO 3000 BR BKN005
05:30
M
16 °C 5 km - 130° 130° 3 kt METAR LYKV 200330Z 13003KT 090V210 5000 BR SCT003 SCT017 16/16 Q1012 TEMPO 3000 BKN005
04:30
M
16 °C 7 km - 140° 140° 3 kt METAR LYKV 200230Z 14003KT 7000 SCT007 SCT035 16/16 Q1012 NOSIG
04:00
M
16 °C 7 km - Var Var 2 kt METAR LYKV 200200Z VRB02KT 7000 -RA FEW015 SCT030 16/16 Q1012 NOSIG
03:30
M
16 °C 6 km 2.700 ft Var Var 2 kt METAR LYKV 200130Z VRB02KT 6000 -RA FEW015 BKN027 16/16 Q1012 NOSIG
03:00
M
16 °C 6 km 2.500 ft Var Var 2 kt METAR LYKV 200100Z VRB02KT 6000 -RA SCT010 BKN025 16/16 Q1013 RERA NOSIG
02:30
M
16 °C 6 km 3.500 ft 360° 360° 0 kt METAR LYKV 200030Z 00000KT 6000 RA SCT007 BKN035 16/16 Q1013 NOSIG
02:00
M
16 °C 6 km 3.500 ft 230° 230° 3 kt METAR LYKV 200000Z 23003KT 190V260 6000 -RA SCT007 BKN035 16/16 Q1013 RERA NOSIG
01:30
I
17 °C 4 km 3.300 ft 230° 230° 3 kt METAR LYKV 192330Z 23003KT 4000 RA SCT005 BKN033 17/17 Q1013 NOSIG
01:00
I
17 °C 3 km 3.300 ft 330° 330° 3 kt METAR LYKV 192300Z 33003KT 290V010 3000 RA SCT005 BKN033 17/17 Q1013 RETS NOSIG
00:30
I
18 °C 4 km - Var Var 2 kt METAR LYKV 192230Z VRB02KT 4000 TSRA SCT010 FEW030CB SCT033 18/17 Q1013 NOSIG
00:00
M
18 °C 6 km - Var Var 2 kt METAR LYKV 192200Z VRB02KT 6000 -TSRA FEW010 FEW030CB SCT033 18/17 Q1013 TEMPO 25020KT 3000 TSRA SCT030CB BKN035

19 de maio de 2024

Hora Código Clima Temp. Visibilidade Tecto Vento METAR/SPECI
23:30
M
18 °C 6 km - 320° 320° 4 kt METAR LYKV 192130Z 32004KT 280V030 6000 -TSRA FEW020 FEW030CB SCT033 18/17 Q1013 TEMPO 25020KT 3000 TSRA SCT030CB BKN035
23:00
V
19 °C 10 km+ - 300° 300° 3 kt METAR LYKV 192100Z 30003KT 9999 -RA SCT060 19/16 Q1012 TEMPO 250120KT 4000 SHRA SCT030TCU BKN035
22:00
V
20 °C 10 km+ - Var Var 1 kt METAR LYKV 192000Z VRB01KT CAVOK 20/16 Q1011 NOSIG
21:30
V
20 °C 10 km+ - 360° 360° 0 kt METAR LYKV 191930Z 00000KT CAVOK 20/16 Q1011 NOSIG
21:00
V
20 °C 10 km+ - Var Var 1 kt METAR LYKV 191900Z VRB01KT CAVOK 20/16 Q1011 NOSIG
20:30
V
21 °C 10 km+ - Var Var 1 kt METAR LYKV 191830Z VRB01KT CAVOK 21/16 Q1010 NOSIG
20:00
V
21 °C 10 km+ - 100° 100° 4 kt METAR LYKV 191800Z 10004KT 060V140 CAVOK 21/16 Q1010 NOSIG
19:30
V
22 °C 10 km+ - 120° 120° 3 kt METAR LYKV 191730Z 12003KT 080V160 CAVOK 22/16 Q1010 NOSIG
19:00
V
23 °C 10 km+ - 120° 120° 6 kt METAR LYKV 191700Z 12006KT CAVOK 23/16 Q1010 NOSIG
18:00
V
24 °C 10 km+ - 130° 130° 7 kt METAR LYKV 191600Z 13007KT 9999 SCT033 24/16 Q1011 NOSIG
17:30
V
24 °C 10 km+ - 120° 120° 9 kt METAR LYKV 191530Z 12009KT 100V160 9999 SCT033 24/15 Q1011 NOSIG
17:00
V
24 °C 10 km+ - 140° 140° 10 kt METAR LYKV 191500Z 14010KT 110V170 9999 SCT033 24/16 Q1011 NOSIG
16:30
V
24 °C 10 km+ - 150° 150° 11 kt METAR LYKV 191430Z 15011KT 110V170 9999 SCT033 24/16 Q1011 NOSIG
16:00
V
25 °C 10 km+ - 150° 150° 9 kt METAR LYKV 191400Z 15009KT 110V190 9999 SCT030 25/17 Q1012 NOSIG
15:30
V
24 °C 10 km+ - 160° 160° 10 kt METAR LYKV 191330Z 16010KT 9999 SCT030 24/17 Q1012 NOSIG
15:00
V
24 °C 10 km+ - 150° 150° 9 kt METAR LYKV 191300Z 15009KT 120V190 9999 SCT030 24/17 Q1012 NOSIG
14:30
V
24 °C 10 km+ - 150° 150° 8 kt METAR LYKV 191230Z 15008KT 120V180 9999 SCT030 24/17 Q1013 NOSIG
14:00
M
24 °C 10 km+ 3.000 ft 180° 180° 5 kt METAR LYKV 191200Z 18005KT 120V220 9999 BKN030 24/18 Q1013 NOSIG
13:30
M
23 °C 10 km+ 3.000 ft Var Var 3 kt METAR LYKV 191130Z VRB03KT 9999 BKN030 23/17 Q1013 NOSIG
13:00
M
21 °C 10 km+ 3.000 ft 120° 120° 1 kt METAR LYKV 191100Z 12001KT 9999 BKN030 21/17 Q1014 NOSIG
12:30
M
21 °C 10 km+ 2.700 ft 360° 360° 0 kt METAR LYKV 191030Z 00000KT 9999 SCT013 BKN027 21/17 Q1014 NOSIG
12:00
M
19 °C 10 km+ 2.700 ft Var Var 1 kt METAR LYKV 191000Z VRB01KT 9999 SCT010 BKN027 19/17 Q1014 NOSIG
11:30
M
19 °C 10 km+ 2.700 ft Var Var 1 kt METAR LYKV 190930Z VRB01KT 9999 SCT010 BKN027 19/17 Q1014 NOSIG
11:00
M
18 °C 10 km+ 2.700 ft 360° 360° 0 kt METAR LYKV 190900Z 00000KT 9999 SCT010 BKN027 18/17 Q1014 NOSIG
10:30
M
18 °C 10 km+ 2.700 ft 360° 360° 0 kt METAR LYKV 190830Z 00000KT 9999 SCT007 BKN027 18/17 Q1014 NOSIG
10:00
M
18 °C 10 km+ 2.700 ft Var Var 1 kt METAR LYKV 190800Z VRB01KT 9999 SCT007 BKN027 18/17 Q1014 NOSIG
09:30
V
17 °C 10 km+ - 170° 170° 3 kt METAR LYKV 190730Z 17003KT 140V210 9999 FEW006 SCT010 17/16 Q1014 NOSIG
09:00
V
17 °C 10 km+ - 150° 150° 2 kt METAR LYKV 190700Z 15002KT 9999 SCT006 17/16 Q1014 NOSIG
08:30
V
17 °C 10 km+ - 150° 150° 4 kt METAR LYKV 190630Z 15004KT 120V180 9999 4500SW SCT005 17/16 Q1014 NOSIG
08:00
V
17 °C 10 km+ - 140° 140° 6 kt METAR LYKV 190600Z 14006KT 9999 4500SW SCT005 17/16 Q1014 NOSIG
07:30
V
16 °C 10 km+ - 150° 150° 7 kt METAR LYKV 190530Z 15007KT 9999 4500SW SCT005 16/16 Q1013 NOSIG
07:00
V
16 °C 10 km+ - 150° 150° 6 kt METAR LYKV 190500Z 15006KT CAVOK 16/16 Q1013 NOSIG
06:30
V
16 °C 10 km+ - 140° 140° 5 kt METAR LYKV 190430Z 14005KT 110V170 CAVOK 16/16 Q1013 NOSIG
06:00
V
16 °C 10 km+ - 140° 140° 6 kt METAR LYKV 190400Z 14006KT 9999 NSC 16/16 Q1013 NOSIG
05:30
V
16 °C 8 km - 160° 160° 3 kt METAR LYKV 190330Z 16003KT 130V200 8000 NSC 16/16 Q1013 NOSIG
05:00
V
16 °C 8 km - 140° 140° 5 kt METAR LYKV 190300Z 14005KT 8000 NSC 16/16 Q1013 NOSIG
04:30
M
16 °C 6 km - 230° 230° 2 kt METAR LYKV 190230Z 23002KT 6000 NSC 16/16 Q1012 NOSIG
04:00
M
16 °C 6 km - 360° 360° 0 kt METAR LYKV 190200Z 00000KT 6000 NSC 16/16 Q1012 NOSIG
03:30
V
16 °C 8 km - 360° 360° 0 kt METAR LYKV 190130Z 00000KT 8000 NSC 16/16 Q1012 NOSIG
03:00
V
16 °C 8 km - 360° 360° 0 kt METAR LYKV 190100Z 00000KT 8000 NSC 16/16 Q1012 NOSIG
02:30
V
16 °C 10 km+ - Var Var 2 kt METAR LYKV 190030Z VRB02KT 9999 FEW050 16/16 Q1012 NOSIG
02:00
V
16 °C 10 km+ - Var Var 1 kt METAR LYKV 190000Z VRB01KT 9999 FEW050 16/15 Q1013 NOSIG
01:30
V
16 °C 10 km+ - Var Var 1 kt METAR LYKV 182330Z VRB01KT 9999 -RA SCT045 16/15 Q1013 NOSIG
01:00
V
16 °C 10 km+ - Var Var 2 kt METAR LYKV 182300Z VRB02KT 9999 -RA SCT045 16/15 Q1014 NOSIG
00:30
V
17 °C 10 km+ - Var Var 1 kt METAR LYKV 182230Z VRB01KT 9999 -RA SCT045 17/15 Q1014 NOSIG
00:00
V
17 °C 10 km+ - 210° 210° 3 kt METAR LYKV 182200Z 21003KT 170V240 9999 -RA SCT045 17/15 Q1014 NOSIG

18 de maio de 2024

Hora Código Clima Temp. Visibilidade Tecto Vento METAR/SPECI
23:30
V
17 °C 10 km+ - Var Var 1 kt METAR LYKV 182130Z VRB01KT CAVOK 17/14 Q1013 NOSIG
23:00
V
17 °C 10 km+ - Var Var 1 kt METAR LYKV 182100Z VRB01KT CAVOK 17/13 Q1013 NOSIG
22:30
V
19 °C 10 km+ - 360° 360° 0 kt METAR LYKV 182030Z 00000KT CAVOK 19/13 Q1013 NOSIG
22:00
V
19 °C 10 km+ - 130° 130° 2 kt METAR LYKV 182000Z 13002KT CAVOK 19/13 Q1013 NOSIG
21:30
V
20 °C 10 km+ - Var Var 1 kt METAR LYKV 181930Z VRB01KT CAVOK 20/13 Q1013 NOSIG
21:00
V
19 °C 10 km+ - Var Var 2 kt METAR LYKV 181900Z VRB02KT CAVOK 19/13 Q1013 NOSIG
20:30
V
21 °C 10 km+ - Var Var 1 kt METAR LYKV 181830Z VRB01KT CAVOK 21/12 Q1013 NOSIG
20:00
V
22 °C 10 km+ - 020° 020° 3 kt METAR LYKV 181800Z 02003KT CAVOK 22/12 Q1013 NOSIG
19:30
V
23 °C 10 km+ - 040° 040° 3 kt METAR LYKV 181730Z 04003KT 010V070 CAVOK 23/12 Q1012 NOSIG
19:00
V
23 °C 10 km+ - 080° 080° 3 kt METAR LYKV 181700Z 08003KT CAVOK 23/12 Q1012 NOSIG
18:30
V
24 °C 10 km+ - 080° 080° 4 kt METAR LYKV 181630Z 08004KT 040V100 CAVOK 24/12 Q1012 NOSIG
18:00
V
24 °C 10 km+ - 110° 110° 4 kt METAR LYKV 181600Z 11004KT CAVOK 24/12 Q1012 NOSIG
17:30
V
25 °C 10 km+ - 110° 110° 5 kt METAR LYKV 181530Z 11005KT 070V150 CAVOK 25/12 Q1012 NOSIG
17:00
V
25 °C 10 km+ - 130° 130° 5 kt METAR LYKV 181500Z 13005KT 100V160 CAVOK 25/11 Q1013 NOSIG
16:30
V
26 °C 10 km+ - 120° 120° 5 kt METAR LYKV 181430Z 12005KT 080V160 CAVOK 26/11 Q1013 NOSIG
16:00
V
26 °C 10 km+ - 140° 140° 5 kt METAR LYKV 181400Z 14005KT 110V170 9999 FEW050 26/11 Q1013 NOSIG
15:30
V
26 °C 10 km+ - 130° 130° 5 kt METAR LYKV 181330Z 13005KT 080V190 9999 FEW050 26/11 Q1014 NOSIG
15:00
V
26 °C 10 km+ - 150° 150° 8 kt METAR LYKV 181300Z 15008KT 120V190 9999 FEW050 26/11 Q1014 NOSIG
14:30
V
26 °C 10 km+ - 160° 160° 7 kt METAR LYKV 181230Z 16007KT 120V210 9999 FEW050 26/11 Q1014 NOSIG
14:00
V
25 °C 10 km+ - 150° 150° 6 kt METAR LYKV 181200Z 15006KT 110V180 9999 FEW050 25/10 Q1014 NOSIG
13:30
V
26 °C 10 km+ - 150° 150° 3 kt METAR LYKV 181130Z 15003KT 070V200 9999 FEW050 26/09 Q1015 NOSIG
13:00
V
25 °C 10 km+ - Var Var 1 kt METAR LYKV 181100Z VRB01KT 9999 FEW050 25/09 Q1015 NOSIG
12:30
V
25 °C 10 km+ - Var Var 1 kt METAR LYKV 181030Z VRB01KT 9999 FEW050 25/09 Q1015 NOSIG
12:00
V
25 °C 10 km+ - Var Var 2 kt METAR LYKV 181000Z VRB02KT 9999 FEW050 25/09 Q1016 NOSIG
11:30
V
23 °C 10 km+ - Var Var 1 kt METAR LYKV 180930Z VRB01KT 9999 FEW050 23/11 Q1016 NOSIG
11:00
V
22 °C 10 km+ - Var Var 1 kt METAR LYKV 180900Z VRB01KT 9999 FEW050 22/13 Q1017 NOSIG
10:30
V
21 °C 10 km+ - 360° 360° 0 kt METAR LYKV 180830Z 00000KT 9999 FEW050 21/13 Q1017 NOSIG
10:00
V
19 °C 10 km+ - Var Var 1 kt METAR LYKV 180800Z VRB01KT 9999 FEW050 19/13 Q1017 NOSIG
09:30
V
18 °C 10 km+ - Var Var 1 kt METAR LYKV 180730Z VRB01KT CAVOK 18/13 Q1017 NOSIG
09:00
V
17 °C 10 km+ - Var Var 1 kt METAR LYKV 180700Z VRB01KT CAVOK 17/13 Q1017 NOSIG
08:30
V
16 °C 10 km+ - Var Var 1 kt METAR LYKV 180630Z VRB01KT CAVOK 16/13 Q1017 NOSIG
08:00
V
14 °C 10 km+ - 360° 360° 0 kt METAR LYKV 180600Z 00000KT CAVOK 14/12 Q1017 NOSIG
Relatar uma mudança